Time;durP1;ratioP1;P1;durP2;ratioP2;P2;SDS_P1;SDS_P2;PMS_P1;PMS_P2;Temp;Humidity;BMP_temperature;BMP_pressure;BME280_temperature;BME280_humidity;BME280_pressure;Samples;Min_cycle;Max_cycle;Signal;HPM_P1;HPM_P2
2021/05/04 00:01:15;;;;;;;5.10;2.55;;;17.00;50.70;;;;;;5071787;28;20032;-68
2021/05/04 00:03:41;;;;;;;7.38;2.88;;;17.00;51.40;;;;;;5070687;28;20476;-67
2021/05/04 00:06:07;;;;;;;4.90;2.60;;;17.00;50.50;;;;;;5068549;28;20016;-68
2021/05/04 00:08:33;;;;;;;4.65;2.13;;;16.90;51.40;;;;;;5052164;28;20017;-68
2021/05/04 00:10:58;;;;;;;4.43;2.42;;;16.90;50.90;;;;;;5054615;28;20032;-67
2021/05/04 00:13:24;;;;;;;5.20;2.40;;;16.90;51.30;;;;;;5053038;28;20450;-67
2021/05/04 00:15:50;;;;;;;5.88;2.40;;;16.90;51.40;;;;;;5063528;28;20518;-68
2021/05/04 00:18:15;;;;;;;5.35;2.70;;;16.90;51.70;;;;;;5054263;28;20403;-68
2021/05/04 00:20:41;;;;;;;6.00;2.88;;;16.90;51.10;;;;;;5034652;28;20084;-67
2021/05/04 00:23:06;;;;;;;5.85;2.65;;;16.80;49.70;;;;;;5031873;28;20035;-67
2021/05/04 00:25:32;;;;;;;5.22;2.53;;;16.80;51.60;;;;;;5038289;28;20035;-67
2021/05/04 00:27:57;;;;;;;4.95;2.60;;;16.80;51.00;;;;;;5068459;28;20500;-67
2021/05/04 00:30:23;;;;;;;6.45;2.45;;;16.80;50.00;;;;;;5044167;28;20108;-68
2021/05/04 00:32:49;;;;;;;8.57;2.70;;;16.80;51.30;;;;;;5054434;28;20107;-68
2021/05/04 00:35:14;;;;;;;5.47;2.47;;;16.70;51.00;;;;;;5070112;28;20075;-67
2021/05/04 00:37:40;;;;;;;4.85;2.28;;;16.70;51.50;;;;;;5054746;28;20044;-68
2021/05/04 00:40:06;;;;;;;6.07;2.88;;;16.70;51.70;;;;;;5057309;28;20035;-68
2021/05/04 00:42:32;;;;;;;6.40;2.85;;;16.70;51.40;;;;;;5047923;28;20031;-68
2021/05/04 00:44:57;;;;;;;4.93;2.50;;;16.70;51.60;;;;;;5025760;28;20112;-68
2021/05/04 00:47:23;;;;;;;6.35;2.80;;;16.70;51.60;;;;;;5042896;28;20036;-68
2021/05/04 00:49:48;;;;;;;5.03;2.60;;;16.70;50.80;;;;;;5051588;28;20206;-68
2021/05/04 00:52:14;;;;;;;5.50;2.55;;;16.70;51.60;;;;;;5049535;28;20120;-67
2021/05/04 00:54:41;;;;;;;4.10;2.35;;;16.60;50.20;;;;;;5031197;28;20053;-67
2021/05/04 00:57:08;;;;;;;4.70;2.60;;;16.60;51.10;;;;;;5066482;28;20035;-67
2021/05/04 00:59:35;;;;;;;5.03;2.60;;;16.60;49.80;;;;;;5038810;28;20029;-67
2021/05/04 01:02:01;;;;;;;5.68;2.70;;;16.60;50.60;;;;;;5051204;28;20029;-67
2021/05/04 01:04:27;;;;;;;5.50;2.75;;;16.60;50.90;;;;;;5050943;28;20033;-68
2021/05/04 01:06:53;;;;;;;5.60;2.35;;;16.50;50.80;;;;;;5029620;28;20381;-67
2021/05/04 01:09:19;;;;;;;5.00;2.25;;;16.50;52.40;;;;;;5051760;28;20024;-68
2021/05/04 01:11:45;;;;;;;6.18;2.88;;;16.50;51.10;;;;;;5053184;28;20037;-68
2021/05/04 01:14:11;;;;;;;6.38;2.65;;;16.50;51.20;;;;;;5060798;28;20072;-68
2021/05/04 01:16:48;;;;;;;4.50;2.45;;;16.50;50.80;;;;;;5051145;28;20075;-67
2021/05/04 01:19:14;;;;;;;5.20;2.00;;;16.50;51.70;;;;;;5033649;28;20025;-68
2021/05/04 01:21:40;;;;;;;5.20;2.55;;;16.60;52.90;;;;;;5054161;28;20502;-68
2021/05/04 01:24:06;;;;;;;6.63;2.50;;;16.60;51.20;;;;;;5069031;28;20552;-68
2021/05/04 01:26:31;;;;;;;6.60;2.50;;;16.60;50.20;;;;;;5028211;28;20030;-68
2021/05/04 01:28:57;;;;;;;5.32;2.10;;;16.50;51.20;;;;;;5040453;28;20044;-67
2021/05/04 01:31:22;;;;;;;5.20;2.53;;;16.50;51.40;;;;;;5044593;28;20403;-68
2021/05/04 01:33:48;;;;;;;5.65;2.30;;;16.50;50.50;;;;;;5039322;28;20021;-68
2021/05/04 01:36:13;;;;;;;4.78;2.10;;;16.50;51.10;;;;;;5054061;28;20031;-68
2021/05/04 01:38:39;;;;;;;5.75;2.05;;;16.50;51.70;;;;;;5055511;28;20387;-67
2021/05/04 01:41:05;;;;;;;5.55;2.40;;;16.50;52.60;;;;;;5050970;28;20040;-68
2021/05/04 01:43:30;;;;;;;6.45;2.20;;;16.50;51.00;;;;;;5033099;28;20017;-68
2021/05/04 01:45:56;;;;;;;4.35;2.10;;;16.50;51.60;;;;;;5047385;28;20378;-67
2021/05/04 01:48:21;;;;;;;4.35;2.10;;;16.50;52.40;;;;;;5051111;28;20067;-68
2021/05/04 01:50:47;;;;;;;5.68;2.05;;;16.60;51.90;;;;;;5041649;28;20021;-68
2021/05/04 01:53:12;;;;;;;4.00;2.03;;;16.60;52.60;;;;;;5066521;28;20444;-68
2021/05/04 01:55:38;;;;;;;7.28;2.08;;;16.60;50.40;;;;;;5051577;28;20049;-68
2021/05/04 01:58:04;;;;;;;3.78;2.17;;;16.50;51.80;;;;;;5064307;28;20112;-68
2021/05/04 02:00:29;;;;;;;3.10;1.80;;;16.50;52.10;;;;;;5046016;28;20052;-68
2021/05/04 02:02:55;;;;;;;5.00;2.00;;;16.60;52.60;;;;;;5056329;28;20111;-68
2021/05/04 02:05:21;;;;;;;6.38;2.30;;;16.50;51.60;;;;;;5073948;28;20409;-68
2021/05/04 02:07:46;;;;;;;4.35;1.83;;;16.50;52.40;;;;;;5049079;28;20033;-68
2021/05/04 02:10:12;;;;;;;3.50;1.85;;;16.50;52.00;;;;;;5045738;28;20032;-67
2021/05/04 02:12:41;;;;;;;3.35;1.90;;;16.60;49.80;;;;;;5071860;28;20075;-68
2021/05/04 02:15:08;;;;;;;4.47;1.80;;;16.60;51.20;;;;;;5066688;28;20071;-68
2021/05/04 02:17:34;;;;;;;4.13;1.83;;;16.50;52.20;;;;;;5054318;28;20490;-68
2021/05/04 02:19:59;;;;;;;2.60;1.52;;;16.50;51.70;;;;;;5055269;28;20113;-68
2021/05/04 02:22:25;;;;;;;3.58;1.77;;;16.60;52.30;;;;;;5060921;28;20408;-68
2021/05/04 02:24:50;;;;;;;3.10;1.77;;;16.60;53.20;;;;;;5072148;28;20400;-68
2021/05/04 02:27:16;;;;;;;5.00;1.60;;;16.60;51.60;;;;;;5069521;28;20043;-68
2021/05/04 02:29:41;;;;;;;3.65;1.88;;;16.60;52.50;;;;;;5069335;28;20428;-67
2021/05/04 02:32:07;;;;;;;3.42;1.80;;;16.60;52.30;;;;;;5060264;28;20602;-67
2021/05/04 02:34:33;;;;;;;4.90;1.90;;;16.60;50.60;;;;;;5053567;28;20041;-69
2021/05/04 02:36:58;;;;;;;2.92;1.65;;;16.60;52.20;;;;;;5022498;28;20057;-67
2021/05/04 02:39:24;;;;;;;3.63;1.73;;;16.60;52.00;;;;;;5041464;28;20377;-68
2021/05/04 02:41:49;;;;;;;4.53;1.85;;;16.60;51.40;;;;;;5073852;28;20505;-68
2021/05/04 02:44:15;;;;;;;3.22;1.65;;;16.60;51.70;;;;;;5055473;28;20033;-68
2021/05/04 02:46:40;;;;;;;2.65;1.40;;;16.60;51.90;;;;;;5072717;28;20032;-68
2021/05/04 02:49:06;;;;;;;5.18;1.85;;;16.60;51.80;;;;;;5073758;28;20028;-68
2021/05/04 02:51:32;;;;;;;4.25;1.80;;;16.50;51.10;;;;;;5072674;28;20040;-68
2021/05/04 02:53:57;;;;;;;3.28;1.70;;;16.60;52.80;;;;;;5059618;28;20044;-68
2021/05/04 02:56:23;;;;;;;4.93;1.42;;;16.50;51.60;;;;;;5053731;28;20021;-68
2021/05/04 02:58:48;;;;;;;4.13;1.67;;;16.60;53.00;;;;;;5051286;28;20017;-67
2021/05/04 03:01:14;;;;;;;4.50;1.70;;;16.60;52.40;;;;;;5027289;28;20124;-68
2021/05/04 03:03:40;;;;;;;4.88;1.40;;;16.60;52.00;;;;;;5070287;28;20107;-67
2021/05/04 03:06:06;;;;;;;8.60;1.45;;;16.60;51.80;;;;;;5064303;28;20035;-68
2021/05/04 03:08:32;;;;;;;3.33;1.30;;;16.70;52.20;;;;;;5035104;28;20502;-67
2021/05/04 03:10:58;;;;;;;3.85;1.60;;;16.70;52.20;;;;;;5031917;28;20473;-67
2021/05/04 03:13:27;;;;;;;2.03;1.20;;;16.70;52.10;;;;;;5034128;28;20028;-68
2021/05/04 03:15:54;;;;;;;4.22;1.60;;;16.70;51.60;;;;;;5033022;28;20552;-67
2021/05/04 03:18:19;;;;;;;6.97;1.40;;;16.60;51.60;;;;;;5022323;28;20092;-68
2021/05/04 03:20:46;;;;;;;3.50;1.30;;;16.70;51.80;;;;;;5051892;28;20488;-68
2021/05/04 03:23:12;;;;;;;4.07;1.70;;;16.70;51.70;;;;;;5053968;28;20025;-67
2021/05/04 03:25:37;;;;;;;3.58;1.55;;;16.80;51.70;;;;;;5052726;28;20029;-67
2021/05/04 03:28:03;;;;;;;5.03;1.33;;;16.80;51.80;;;;;;5052959;28;20083;-68
2021/05/04 03:30:29;;;;;;;4.68;1.20;;;16.70;51.60;;;;;;5049998;28;20025;-68
2021/05/04 03:32:55;;;;;;;2.95;1.25;;;16.70;51.70;;;;;;5052426;28;20476;-68
2021/05/04 03:35:21;;;;;;;4.90;1.38;;;16.80;51.70;;;;;;5052415;28;20092;-68
2021/05/04 03:37:48;;;;;;;4.70;1.33;;;16.70;51.60;;;;;;5052684;28;20025;-67
2021/05/04 03:40:14;;;;;;;3.08;1.20;;;16.70;52.30;;;;;;5039438;28;20052;-68
2021/05/04 03:42:40;;;;;;;4.60;1.20;;;16.70;51.70;;;;;;5052448;28;20078;-68
2021/05/04 03:45:07;;;;;;;2.25;1.20;;;16.70;51.60;;;;;;5046812;28;20037;-67
2021/05/04 03:47:32;;;;;;;3.55;1.40;;;16.70;51.80;;;;;;5051987;28;20092;-68
2021/05/04 03:49:58;;;;;;;4.72;1.35;;;16.70;51.50;;;;;;5039626;28;20046;-67
2021/05/04 03:52:24;;;;;;;3.47;1.35;;;16.70;51.50;;;;;;5056655;28;20044;-68
2021/05/04 03:54:49;;;;;;;2.35;1.27;;;16.70;52.20;;;;;;5060586;28;20032;-67
2021/05/04 03:57:15;;;;;;;3.67;1.30;;;16.70;52.20;;;;;;5071128;28;20028;-67
2021/05/04 03:59:40;;;;;;;3.85;1.20;;;16.70;52.10;;;;;;5054602;28;20086;-67
2021/05/04 04:02:06;;;;;;;2.97;1.40;;;16.70;52.30;;;;;;5050633;28;20441;-67
2021/05/04 04:04:32;;;;;;;2.90;1.20;;;16.70;52.30;;;;;;5062854;22;20040;-64
2021/05/04 04:06:57;;;;;;;2.35;1.13;;;16.70;52.40;;;;;;5054045;28;20050;-64
2021/05/04 04:09:23;;;;;;;1.88;1.13;;;16.70;52.40;;;;;;5071714;28;20504;-66
2021/05/04 04:11:48;;;;;;;3.97;1.40;;;16.70;52.50;;;;;;5071213;28;20032;-64
2021/05/04 04:14:14;;;;;;;3.50;1.27;;;16.70;52.50;;;;;;5071781;28;20028;-64
2021/05/04 04:16:39;;;;;;;3.97;1.70;;;16.70;52.60;;;;;;5071489;28;20503;-65
2021/05/04 04:19:05;;;;;;;4.40;1.50;;;16.60;52.60;;;;;;5071366;28;20036;-64
2021/05/04 04:21:30;;;;;;;4.03;1.50;;;16.60;52.70;;;;;;5053649;28;20036;-64
2021/05/04 04:23:56;;;;;;;2.60;1.48;;;16.60;53.00;;;;;;5053604;28;20483;-68
2021/05/04 04:26:21;;;;;;;3.03;1.55;;;16.60;53.00;;;;;;5053583;28;20017;-63
2021/05/04 04:28:47;;;;;;;2.72;1.33;;;16.60;53.10;;;;;;5071350;28;20025;-64
2021/05/04 04:31:13;;;;;;;4.88;1.48;;;16.60;53.10;;;;;;5070196;28;20025;-63
2021/05/04 04:33:38;;;;;;;3.38;1.30;;;16.60;53.20;;;;;;5053549;28;20028;-64
2021/05/04 04:36:04;;;;;;;3.83;1.20;;;16.50;53.50;;;;;;5070267;28;20036;-64
2021/05/04 04:38:30;;;;;;;2.00;1.15;;;16.50;53.50;;;;;;5071372;28;20040;-64
2021/05/04 04:40:56;;;;;;;3.42;1.30;;;16.50;53.90;;;;;;5071719;28;20025;-64
2021/05/04 04:43:21;;;;;;;3.58;1.35;;;16.50;54.30;;;;;;5050636;28;20521;-67
2021/05/04 04:45:47;;;;;;;3.22;1.40;;;16.40;54.50;;;;;;5064533;28;20036;-66
2021/05/04 04:48:13;;;;;;;4.32;1.70;;;16.40;53.80;;;;;;5041972;28;20039;-63
2021/05/04 04:50:38;;;;;;;4.18;1.60;;;16.40;54.50;;;;;;5064231;28;20021;-66
2021/05/04 04:53:04;;;;;;;3.33;1.35;;;16.40;54.40;;;;;;5046901;28;20101;-64
2021/05/04 04:55:29;;;;;;;3.13;1.30;;;16.40;54.90;;;;;;5064265;28;20035;-64
2021/05/04 04:57:55;;;;;;;2.90;1.40;;;16.40;54.50;;;;;;5064298;28;20032;-64
2021/05/04 05:00:21;;;;;;;7.50;1.33;;;16.40;54.60;;;;;;5046444;28;20033;-67
2021/05/04 05:02:46;;;;;;;3.13;1.50;;;16.40;55.20;;;;;;5064603;28;20117;-67
2021/05/04 05:05:12;;;;;;;2.65;1.30;;;16.30;55.40;;;;;;5060003;28;20063;-70
2021/05/04 05:07:38;;;;;;;6.10;1.63;;;16.30;54.90;;;;;;5062903;28;20410;-64
2021/05/04 05:10:04;;;;;;;3.08;1.30;;;16.30;56.00;;;;;;5064395;28;20024;-62
2021/05/04 05:12:29;;;;;;;3.28;1.48;;;16.30;55.30;;;;;;5063347;28;20032;-66
2021/05/04 05:14:55;;;;;;;4.95;1.50;;;16.30;55.90;;;;;;5062917;28;20399;-66
2021/05/04 05:17:21;;;;;;;6.32;1.38;;;16.30;55.80;;;;;;5063877;28;20029;-65
2021/05/04 05:19:47;;;;;;;4.22;1.52;;;16.30;55.70;;;;;;5064154;28;20032;-63
2021/05/04 05:22:12;;;;;;;4.63;1.70;;;16.30;55.90;;;;;;5063940;28;20020;-68
2021/05/04 05:24:38;;;;;;;7.30;1.40;;;16.30;56.70;;;;;;5045896;28;20049;-66
2021/05/04 05:27:05;;;;;;;4.50;1.70;;;16.30;56.70;;;;;;5064334;28;20103;-64
2021/05/04 05:29:34;;;;;;;8.07;1.60;;;16.20;57.10;;;;;;5063738;28;20033;-65
2021/05/04 05:31:59;;;;;;;27.02;2.83;;;16.20;56.60;;;;;;5046434;28;20399;-63
2021/05/04 05:34:25;;;;;;;4.88;1.58;;;16.20;57.20;;;;;;5067732;28;20021;-64
2021/05/04 05:36:50;;;;;;;9.32;1.65;;;16.20;57.30;;;;;;5050209;28;20105;-63
2021/05/04 05:39:16;;;;;;;9.38;1.75;;;16.20;57.00;;;;;;5068142;28;20029;-63
2021/05/04 05:41:42;;;;;;;8.27;1.63;;;16.20;57.10;;;;;;5068402;28;20039;-66
2021/05/04 05:44:08;;;;;;;11.90;2.08;;;16.20;56.80;;;;;;5049816;28;20491;-63
2021/05/04 05:46:34;;;;;;;9.32;1.80;;;16.20;56.80;;;;;;5068651;28;20037;-65
2021/05/04 05:49:00;;;;;;;5.60;1.70;;;16.20;57.00;;;;;;5068426;28;20393;-64
2021/05/04 05:51:26;;;;;;;4.78;1.60;;;16.10;56.80;;;;;;5054207;28;20481;-62
2021/05/04 05:53:52;;;;;;;8.27;1.70;;;16.10;57.20;;;;;;5036897;28;20568;-66
2021/05/04 05:56:18;;;;;;;5.20;1.50;;;16.10;56.90;;;;;;5046791;28;20063;-66
2021/05/04 05:58:44;;;;;;;8.07;1.55;;;16.00;57.60;;;;;;5059317;28;20125;-63
2021/05/04 06:01:10;;;;;;;3.28;1.40;;;16.10;57.00;;;;;;5048199;28;20044;-63
2021/05/04 06:03:35;;;;;;;4.30;1.40;;;16.10;57.30;;;;;;5050026;28;20114;-65
2021/05/04 06:06:01;;;;;;;4.13;1.35;;;16.10;57.30;;;;;;5051065;28;20045;-65
2021/05/04 06:08:27;;;;;;;8.38;1.48;;;16.00;57.30;;;;;;5047438;28;20507;-62
2021/05/04 06:10:53;;;;;;;8.95;1.67;;;16.00;57.20;;;;;;5041299;28;20504;-65
2021/05/04 06:13:20;;;;;;;5.25;1.23;;;16.00;57.20;;;;;;5053825;28;20040;-67
2021/05/04 06:15:45;;;;;;;5.80;1.30;;;16.00;57.10;;;;;;5062129;28;20029;-67
2021/05/04 06:18:11;;;;;;;4.13;1.33;;;16.00;57.00;;;;;;5042178;28;20032;-61
2021/05/04 06:20:37;;;;;;;3.83;1.45;;;16.00;57.10;;;;;;5062157;28;20060;-63
2021/05/04 06:23:04;;;;;;;5.60;1.40;;;16.00;57.10;;;;;;5043866;28;20032;-62
2021/05/04 06:25:31;;;;;;;5.25;1.40;;;16.00;57.00;;;;;;5045601;28;20021;-64
2021/05/04 06:28:00;;;;;;;7.45;1.40;;;16.10;56.90;;;;;;5061991;28;20044;-65
2021/05/04 06:30:27;;;;;;;2.47;1.30;;;16.00;57.10;;;;;;5063297;28;20016;-63
2021/05/04 06:32:53;;;;;;;3.88;1.50;;;16.00;57.10;;;;;;5064546;28;20017;-64
2021/05/04 06:35:20;;;;;;;4.97;1.67;;;16.00;57.00;;;;;;5062471;28;20037;-65
2021/05/04 06:37:46;;;;;;;6.07;1.30;;;16.00;57.30;;;;;;5050247;28;20013;-66
2021/05/04 06:40:13;;;;;;;6.60;1.30;;;16.00;57.50;;;;;;5056123;28;20033;-65
2021/05/04 06:42:39;;;;;;;6.80;1.40;;;16.00;57.40;;;;;;5043496;28;20055;-67
2021/05/04 06:45:06;;;;;;;9.75;1.50;;;15.90;57.40;;;;;;5050920;28;20480;-65
2021/05/04 06:47:31;;;;;;;3.67;1.10;;;15.90;57.30;;;;;;5044920;28;20438;-67
2021/05/04 06:49:57;;;;;;;5.10;1.20;;;15.90;56.90;;;;;;5027936;28;20050;-62
2021/05/04 06:52:22;;;;;;;4.30;1.20;;;15.90;56.80;;;;;;5050685;28;20025;-62
2021/05/04 06:54:48;;;;;;;6.60;1.33;;;15.90;56.60;;;;;;5051096;28;20392;-64
2021/05/04 06:57:14;;;;;;;3.60;1.27;;;15.90;56.60;;;;;;5028316;28;20028;-68
2021/05/04 06:59:39;;;;;;;7.72;1.50;;;15.90;56.60;;;;;;5048862;28;20400;-63
2021/05/04 07:02:05;;;;;;;160.43;145.25;;;15.90;57.00;;;;;;5046443;28;20447;-64
2021/05/04 07:04:31;;;;;;;126.50;114.28;;;15.90;57.10;;;;;;5050043;28;20017;-65
2021/05/04 07:06:56;;;;;;;73.38;65.72;;;15.90;56.90;;;;;;5058174;28;20052;-63
2021/05/04 07:09:22;;;;;;;44.22;34.28;;;16.00;57.20;;;;;;5043055;28;20496;-62
2021/05/04 07:11:47;;;;;;;25.92;21.90;;;16.00;57.30;;;;;;5051785;28;20029;-65
2021/05/04 07:14:13;;;;;;;20.67;16.92;;;16.00;57.10;;;;;;5052925;28;20029;-64
2021/05/04 07:16:39;;;;;;;21.00;16.73;;;16.00;56.90;;;;;;5046028;28;20031;-64
2021/05/04 07:19:05;;;;;;;20.05;17.42;;;16.10;56.80;;;;;;5036263;28;20024;-65
2021/05/04 07:21:32;;;;;;;19.25;17.35;;;16.10;56.80;;;;;;5029287;28;20033;-62
2021/05/04 07:23:58;;;;;;;15.07;13.48;;;16.20;56.70;;;;;;5045905;28;20083;-63
2021/05/04 07:26:23;;;;;;;15.73;13.57;;;16.20;56.50;;;;;;5045888;28;20416;-62
2021/05/04 07:28:49;;;;;;;13.82;11.95;;;16.40;56.30;;;;;;5055518;28;20039;-62
2021/05/04 07:31:14;;;;;;;15.02;11.57;;;16.50;56.00;;;;;;5059860;28;20017;-63
2021/05/04 07:33:40;;;;;;;14.13;12.63;;;16.60;55.90;;;;;;5028096;28;20484;-68
2021/05/04 07:36:06;;;;;;;12.63;11.15;;;16.60;55.80;;;;;;5027100;28;20025;-62
2021/05/04 07:38:31;;;;;;;13.13;11.07;;;16.60;55.80;;;;;;5045128;28;20013;-62
2021/05/04 07:40:57;;;;;;;12.52;10.55;;;16.70;55.80;;;;;;5037461;28;20090;-63
2021/05/04 07:43:23;;;;;;;12.32;10.10;;;16.80;55.80;;;;;;5026658;28;20035;-62
2021/05/04 07:45:49;;;;;;;14.13;9.57;;;16.80;55.60;;;;;;5061784;28;20052;-64
2021/05/04 07:48:16;;;;;;;11.18;9.32;;;17.00;55.40;;;;;;5063982;28;20099;-62
2021/05/04 07:50:41;;;;;;;12.43;10.13;;;17.00;55.10;;;;;;5047518;28;20021;-62
2021/05/04 07:53:07;;;;;;;11.55;9.90;;;17.00;55.20;;;;;;5065040;28;20561;-65
2021/05/04 07:55:33;;;;;;;11.82;10.00;;;17.00;55.30;;;;;;5064901;28;20032;-65
2021/05/04 07:57:58;;;;;;;10.60;8.45;;;17.10;55.20;;;;;;5065457;28;20400;-65
2021/05/04 08:00:24;;;;;;;10.82;8.50;;;17.10;55.20;;;;;;5065074;28;20029;-65
2021/05/04 08:02:50;;;;;;;9.73;8.02;;;17.10;55.10;;;;;;5063787;28;20391;-63
2021/05/04 08:05:16;;;;;;;10.50;8.70;;;17.20;55.00;;;;;;5045607;28;20031;-62
2021/05/04 08:07:41;;;;;;;11.63;9.48;;;17.20;55.00;;;;;;5070081;28;20052;-65
2021/05/04 08:10:08;;;;;;;9.80;7.07;;;17.30;54.80;;;;;;5071335;28;20171;-66
2021/05/04 08:12:34;;;;;;;10.73;6.65;;;17.30;54.70;;;;;;5053492;28;20028;-64
2021/05/04 08:15:00;;;;;;;11.18;8.60;;;17.30;54.70;;;;;;5071324;28;20487;-66
2021/05/04 08:17:28;;;;;;;9.68;6.50;;;17.50;54.40;;;;;;5054188;28;20024;-64
2021/05/04 08:19:56;;;;;;;9.75;6.78;;;17.50;54.20;;;;;;5072049;28;20028;-64
2021/05/04 08:22:22;;;;;;;9.13;6.72;;;17.50;54.20;;;;;;5071320;28;20051;-63
2021/05/04 08:24:47;;;;;;;7.78;6.30;;;17.50;54.20;;;;;;5070979;28;20483;-62
2021/05/04 08:27:13;;;;;;;7.80;5.40;;;17.50;54.30;;;;;;5071582;28;20476;-64
2021/05/04 08:29:38;;;;;;;10.05;6.30;;;17.50;54.30;;;;;;5071072;28;20036;-64
2021/05/04 08:32:04;;;;;;;9.52;6.15;;;17.50;54.40;;;;;;5071487;28;20030;-64
2021/05/04 08:34:33;;;;;;;9.43;5.97;;;17.50;54.40;;;;;;5053531;28;20025;-63
2021/05/04 08:37:00;;;;;;;12.57;6.30;;;17.50;54.30;;;;;;5071770;28;20036;-65
2021/05/04 08:39:26;;;;;;;14.93;13.25;;;17.50;54.50;;;;;;5071736;28;20036;-63
2021/05/04 08:41:51;;;;;;;12.20;10.60;;;17.50;54.40;;;;;;5071604;28;20074;-65
2021/05/04 08:44:19;;;;;;;12.20;10.80;;;17.50;54.40;;;;;;5071354;28;20519;-64
2021/05/04 08:46:49;;;;;;;12.50;10.75;;;17.50;54.40;;;;;;5071316;28;20029;-63
2021/05/04 08:49:17;;;;;;;24.13;21.77;;;17.50;54.60;;;;;;5071621;28;20028;-63
2021/05/04 08:51:44;;;;;;;17.55;15.75;;;17.50;54.40;;;;;;5053594;28;20055;-63
2021/05/04 08:54:10;;;;;;;20.17;18.27;;;17.50;54.20;;;;;;5070091;28;20039;-63
2021/05/04 08:56:37;;;;;;;14.38;12.98;;;17.50;54.10;;;;;;5071422;28;20025;-63
2021/05/04 08:59:03;;;;;;;15.90;14.13;;;17.50;54.60;;;;;;5071110;28;20082;-63
2021/05/04 09:01:29;;;;;;;14.15;12.30;;;17.50;54.60;;;;;;5053180;28;20032;-64
2021/05/04 09:04:03;;;;;;;15.82;14.20;;;17.50;54.30;;;;;;5052897;28;20514;-66
2021/05/04 09:06:41;;;;;;;16.80;15.20;;;17.50;54.30;;;;;;5070742;28;20036;-65
2021/05/04 09:09:20;;;;;;;23.02;20.95;;;17.50;54.20;;;;;;5071465;28;20016;-63
2021/05/04 09:14:45;;;;;;;65.35;59.17;;;17.50;54.40;;;;;;5070647;28;20051;-63
2021/05/04 09:17:32;;;;;;;197.15;165.52;;;17.60;54.30;;;;;;5071342;28;20024;-63
2021/05/04 09:22:46;;;;;;;110.07;85.38;;;17.50;54.00;;;;;;5071267;28;20104;-63
2021/05/04 09:25:35;;;;;;;280.70;196.43;;;17.50;54.00;;;;;;5070792;28;20456;-63
2021/05/04 09:28:09;;;;;;;522.80;336.77;;;17.40;54.30;;;;;;5060074;28;20029;-64
2021/05/04 09:30:35;;;;;;;1214.95;699.35;;;17.40;54.40;;;;;;5046343;28;20032;-65
2021/05/04 09:33:06;;;;;;;400.27;255.25;;;17.40;54.80;;;;;;5051676;28;20029;-61
2021/05/04 09:35:32;;;;;;;279.17;166.70;;;17.40;53.40;;;;;;5052698;28;20048;-63
2021/05/04 09:38:05;;;;;;;175.23;108.97;;;17.20;53.30;;;;;;5060327;28;20487;-63
2021/05/04 09:40:34;;;;;;;86.57;53.40;;;17.10;53.80;;;;;;5071054;28;20036;-61
2021/05/04 09:43:11;;;;;;;70.85;44.20;;;17.20;54.40;;;;;;5066859;28;20043;-62
2021/05/04 09:45:40;;;;;;;33.58;21.20;;;17.30;54.30;;;;;;5069294;28;20059;-61
2021/05/04 09:48:18;;;;;;;25.55;15.70;;;17.30;53.00;;;;;;5041128;28;20083;-62
2021/05/04 09:50:57;;;;;;;26.85;17.42;;;17.30;53.40;;;;;;5051262;28;20025;-61
2021/05/04 09:53:43;;;;;;;23.73;13.90;;;17.30;54.40;;;;;;5052818;28;20024;-64
2021/05/04 09:56:10;;;;;;;54.90;36.85;;;17.10;55.30;;;;;;5070516;28;20503;-64
2021/05/04 09:58:37;;;;;;;57.05;38.05;;;17.00;55.30;;;;;;5070259;28;20032;-62
2021/05/04 10:01:12;;;;;;;66.30;43.25;;;17.00;55.50;;;;;;5051378;28;20064;-63
2021/05/04 10:03:39;;;;;;;64.93;43.00;;;17.10;55.20;;;;;;5070665;28;20356;-64
2021/05/04 10:06:07;;;;;;;58.00;38.67;;;17.20;55.10;;;;;;5069858;28;20024;-65
2021/05/04 10:08:34;;;;;;;50.83;34.55;;;17.20;55.50;;;;;;5048109;28;20021;-63
2021/05/04 10:11:20;;;;;;;41.63;28.55;;;17.20;55.20;;;;;;5069641;28;20013;-66
2021/05/04 10:13:54;;;;;;;54.20;36.30;;;17.20;55.80;;;;;;5070221;28;20415;-64
2021/05/04 10:16:25;;;;;;;49.53;33.10;;;17.20;55.30;;;;;;5067552;28;20017;-63
2021/05/04 10:18:51;;;;;;;56.43;38.47;;;17.20;55.70;;;;;;5048156;28;20020;-63
2021/05/04 10:21:18;;;;;;;55.42;37.70;;;17.30;55.50;;;;;;5071347;28;20271;-63
2021/05/04 10:23:45;;;;;;;54.60;38.15;;;17.30;55.30;;;;;;5055510;28;20027;-64
2021/05/04 10:26:17;;;;;;;49.92;33.90;;;17.40;55.30;;;;;;5073234;28;20025;-64
2021/05/04 10:28:48;;;;;;;49.95;32.85;;;17.40;55.20;;;;;;5053351;28;20021;-67
2021/05/04 10:31:15;;;;;;;321.65;290.58;;;17.50;55.00;;;;;;5046105;28;20032;-65
2021/05/04 10:33:42;;;;;;;90.60;76.07;;;17.50;54.80;;;;;;5102837;22;20043;-65
2021/05/04 10:36:33;;;;;;;65.28;50.20;;;17.60;54.50;;;;;;5063367;28;20029;-68
2021/05/04 10:38:59;;;;;;;318.65;271.52;;;17.60;54.50;;;;;;5075700;28;20028;-65
2021/05/04 10:41:25;;;;;;;107.57;88.70;;;17.60;55.10;;;;;;5085042;28;20051;-67
2021/05/04 10:44:12;;;;;;;88.03;77.38;;;17.60;54.80;;;;;;5081293;28;20151;-67
2021/05/04 10:46:42;;;;;;;64.63;53.50;;;17.60;55.30;;;;;;5065913;28;20025;-68
2021/05/04 10:49:18;;;;;;;57.25;46.42;;;17.60;55.10;;;;;;5092273;28;20095;-65
2021/05/04 10:51:46;;;;;;;52.80;42.72;;;17.60;55.50;;;;;;5084013;28;20077;-64
2021/05/04 10:54:12;;;;;;;62.67;50.17;;;17.50;55.80;;;;;;5059401;28;20084;-67
2021/05/04 10:56:48;;;;;;;60.17;47.13;;;17.50;55.40;;;;;;5077490;28;20028;-65
2021/05/04 10:59:33;;;;;;;56.40;44.05;;;17.50;55.70;;;;;;5068882;28;20054;-65
2021/05/04 11:02:08;;;;;;;57.40;43.90;;;17.60;55.50;;;;;;5057991;28;20041;-66
2021/05/04 11:04:40;;;;;;;54.45;41.67;;;17.60;55.60;;;;;;5072803;28;20146;-64
2021/05/04 11:07:06;;;;;;;91.97;82.45;;;17.60;55.70;;;;;;5072123;28;20785;-66
2021/05/04 11:09:32;;;;;;;359.80;286.73;;;17.60;55.70;;;;;;5074675;28;20021;-63
2021/05/04 11:11:58;;;;;;;253.07;201.63;;;17.60;55.90;;;;;;5079571;28;20507;-65
2021/05/04 11:14:25;;;;;;;147.80;116.10;;;17.60;56.00;;;;;;5076101;28;20059;-63
2021/05/04 11:16:55;;;;;;;1329.47;885.70;;;17.60;56.40;;;;;;5054973;28;20031;-67
2021/05/04 11:19:31;;;;;;;559.42;468.35;;;17.60;56.60;;;;;;5068959;28;20090;-67
2021/05/04 11:22:00;;;;;;;277.05;208.63;;;17.60;56.40;;;;;;5068263;28;20043;-62
2021/05/04 11:27:04;;;;;;;546.13;461.17;;;17.60;56.40;;;;;;5064738;28;20032;-62
2021/05/04 11:29:32;;;;;;;588.97;486.13;;;17.60;56.40;;;;;;5037464;28;20029;-65
2021/05/04 11:32:11;;;;;;;411.55;317.42;;;17.80;56.00;;;;;;5069754;28;20020;-67
2021/05/04 11:34:38;;;;;;;519.83;434.63;;;17.80;56.10;;;;;;5069046;28;20047;-68
2021/05/04 11:37:11;;;;;;;385.77;303.63;;;17.80;55.70;;;;;;5064497;28;20028;-64
2021/05/04 11:39:55;;;;;;;841.85;675.72;;;18.20;55.30;;;;;;5068791;28;20392;-64
2021/05/04 11:42:30;;;;;;;660.33;568.75;;;18.70;54.60;;;;;;5052333;28;20024;-63
2021/05/04 11:45:05;;;;;;;492.85;395.23;;;18.80;53.70;;;;;;5066075;28;20029;-64
2021/05/04 11:47:31;;;;;;;436.63;358.30;;;19.10;53.90;;;;;;5065123;28;20514;-63
2021/05/04 11:50:15;;;;;;;349.33;279.52;;;19.00;53.60;;;;;;5062552;28;20111;-64
2021/05/04 11:52:46;;;;;;;307.42;240.23;;;19.10;53.40;;;;;;5064457;28;20024;-66
2021/05/04 11:55:15;;;;;;;309.58;243.32;;;19.10;53.60;;;;;;5049682;28;20248;-62
2021/05/04 11:57:43;;;;;;;247.18;197.73;;;19.10;53.10;;;;;;5092685;28;20055;-65
2021/05/04 12:00:11;;;;;;;190.27;159.48;;;19.00;52.80;;;;;;5092348;28;20513;-64
2021/05/04 12:02:37;;;;;;;267.50;239.65;;;18.90;52.80;;;;;;5087523;28;20028;-65
2021/05/04 12:05:03;;;;;;;331.55;290.77;;;18.90;52.90;;;;;;5071353;28;20452;-65
2021/05/04 12:07:34;;;;;;;329.65;297.67;;;18.80;52.80;;;;;;5072213;28;20016;-65
2021/05/04 12:10:00;;;;;;;368.63;309.08;;;18.70;52.50;;;;;;5065754;28;20025;-65
2021/05/04 12:12:48;;;;;;;445.05;359.20;;;18.60;53.10;;;;;;5043058;28;20033;-65
2021/05/04 12:15:18;;;;;;;396.05;341.75;;;18.60;53.20;;;;;;5066180;28;20395;-64
2021/05/04 12:18:08;;;;;;;282.00;247.88;;;18.60;53.70;;;;;;5070608;28;20067;-65
2021/05/04 12:20:40;;;;;;;244.68;218.13;;;18.80;53.50;;;;;;5077560;28;20024;-64
2021/05/04 12:23:07;;;;;;;236.07;208.23;;;18.90;53.00;;;;;;5077209;28;20016;-65
2021/05/04 12:25:46;;;;;;;176.85;147.55;;;18.90;52.80;;;;;;5071113;28;20409;-67
2021/05/04 12:28:22;;;;;;;167.43;143.23;;;18.90;52.90;;;;;;5077942;28;20023;-65
2021/05/04 12:30:48;;;;;;;155.63;135.80;;;18.80;53.60;;;;;;5071883;28;20028;-65
2021/05/04 12:33:17;;;;;;;153.98;134.30;;;18.70;53.50;;;;;;5075215;28;20020;-65
2021/05/04 12:35:55;;;;;;;153.85;133.48;;;18.70;53.80;;;;;;5066965;28;20020;-66
2021/05/04 12:38:29;;;;;;;157.55;135.98;;;18.70;53.60;;;;;;5053999;28;20419;-66
2021/05/04 12:41:08;;;;;;;150.35;132.35;;;18.70;53.80;;;;;;5053676;28;20025;-66
2021/05/04 12:43:39;;;;;;;138.27;120.85;;;18.70;53.80;;;;;;5052847;28;20036;-65
2021/05/04 12:46:16;;;;;;;143.93;124.97;;;18.60;53.90;;;;;;5051695;28;20037;-66